Pagina principale
METAR-TAF:

METAR-TAF

Aeroporti :

Passo della Cisa, Italia

latitudine: 44-26N, longitudine: 009-56E, altezza: 1039 m

Osservazione

Il bollettino è stato emesso 16 minuti fa, alle 12:55 UTC
Vento 28 kt da ovest/sud-ovest
Temperature 3°C
Umidità 93%
Pressione 1005 hPa
Visibilità minore di 50 m
nebbia

METAR: LIMT 161255Z 24028KT 0000 FG VV/// 03/02 Q1005 RMK MON INVIS VAL INVIS VIS MIN 0000

Ora: 14:11 (13:11 UTC)


TAF: mancante

Osservazioni e previsioni meteorologiche di più di 4000 aeroporti (messaggi METAR e TAF).

Le stazioni disponibili sono rappresentate dai dischi gialli e rossi sulla carta.

Puntare il mouse per vedere il nome della stazione.

Clicca sopra per visualizzare le osservazioni e previsioni meteorologiche.

Per cambiare la mappa : fare clic sui pulsanti verdi con una croce nera per ingrandire, il pulsante verde con un trattino per diminuire, o sulla freccia verde per le mappe adiacenti.


METAR-TAF: